Faywood, New Mexico
Current Conditions -  °F | °C
As of 12:15 AM on Sunday 28 Dec 2014 (Local Time) from KSVC Reporting Station
Clear Clear  
Wind Chill: 11°   Ceiling: Unl
Heat Index: 19°   Visibility: 10mi
Dew Point: 14°   Wind: 6mph
Humidity: 80%   Direction: 320°NW
Pressure: 30.27"   Gusts: NA
Location:  32.5°N, 107.99°W
Report Text: KSVC 280715Z AUTO 32005KT 10SM CLR M07/M10 A3027 RMK AO2
Loading
Personal Weather Stations






























Interactive Weather Map New forecast layout! Learn more

10-Day Weather Forecast

Advertisements
Track Severe Weather on mobile